createdAt,value
2022-11-28T00:00:08.635Z,0.00
2022-11-28T00:01:08.705Z,0.00
2022-11-28T00:02:08.908Z,0.00
2022-11-28T00:03:08.951Z,0.00
2022-11-28T00:04:08.954Z,0.00
2022-11-28T00:05:09.012Z,0.00
2022-11-28T00:06:09.105Z,0.00
2022-11-28T00:07:09.181Z,0.00
2022-11-28T00:08:09.252Z,0.00
2022-11-28T00:09:09.328Z,0.00
2022-11-28T00:10:09.416Z,0.00
2022-11-28T00:11:09.483Z,0.00
2022-11-28T00:12:09.600Z,0.00
2022-11-28T00:13:09.640Z,0.00
2022-11-28T00:14:09.753Z,0.00
2022-11-28T00:15:09.801Z,0.00
2022-11-28T00:16:09.955Z,0.00
2022-11-28T00:17:09.985Z,0.00
2022-11-28T00:18:10.068Z,0.00
2022-11-28T00:19:10.136Z,0.00
2022-11-28T00:20:10.213Z,0.00
2022-11-28T00:21:10.312Z,0.00
2022-11-28T00:22:10.382Z,0.00
2022-11-28T00:23:10.464Z,0.00
2022-11-28T00:24:10.525Z,0.00
2022-11-28T00:25:10.585Z,0.00
2022-11-28T00:26:10.694Z,0.00
2022-11-28T00:27:10.758Z,0.00
2022-11-28T00:28:10.859Z,0.00
2022-11-28T00:29:10.931Z,0.00
2022-11-28T00:30:11.025Z,0.00
2022-11-28T00:31:11.092Z,0.00
2022-11-28T00:32:11.276Z,0.00
2022-11-28T00:33:11.249Z,0.00
2022-11-28T00:34:11.344Z,0.00
2022-11-28T00:35:11.413Z,0.00
2022-11-28T00:36:11.511Z,0.00
2022-11-28T00:37:11.595Z,0.00
2022-11-28T00:38:11.655Z,0.00
2022-11-28T00:39:11.737Z,0.00
2022-11-28T00:40:11.822Z,0.00
2022-11-28T00:41:11.900Z,0.00
2022-11-28T00:42:12.001Z,0.00
2022-11-28T00:43:12.047Z,0.00
2022-11-28T00:44:12.140Z,0.00
2022-11-28T00:45:12.213Z,0.00
2022-11-28T00:46:12.422Z,0.00
2022-11-28T00:47:12.381Z,0.00
2022-11-28T00:48:12.468Z,0.00
2022-11-28T00:49:12.533Z,0.00
2022-11-28T00:50:12.629Z,0.00
2022-11-28T00:51:12.702Z,0.00
2022-11-28T00:52:12.805Z,0.00
2022-11-28T00:53:12.867Z,0.00
2022-11-28T00:54:12.964Z,0.00
2022-11-28T00:55:13.030Z,0.00
2022-11-28T00:56:13.122Z,0.00
2022-11-28T00:57:13.189Z,0.00
2022-11-28T00:58:13.257Z,0.00
2022-11-28T00:59:13.314Z,0.00
2022-11-28T01:00:13.394Z,0.00
2022-11-28T01:01:13.524Z,0.00
2022-11-28T01:02:13.683Z,0.00
2022-11-28T01:03:13.635Z,0.00
2022-11-28T01:04:13.719Z,0.00
2022-11-28T01:05:13.784Z,0.00
2022-11-28T01:06:13.877Z,0.00
2022-11-28T01:07:14.007Z,0.00
2022-11-28T01:08:14.060Z,0.00
2022-11-28T01:09:14.133Z,0.00
2022-11-28T01:10:14.251Z,0.00
2022-11-28T01:11:14.282Z,0.00
2022-11-28T01:12:14.388Z,0.00
2022-11-28T01:13:14.453Z,0.00
2022-11-28T01:14:14.546Z,0.00
2022-11-28T01:15:14.622Z,0.00
2022-11-28T01:16:14.780Z,0.00
2022-11-28T01:17:14.997Z,0.00
2022-11-28T01:18:14.878Z,0.00
2022-11-28T01:19:14.958Z,0.00
2022-11-28T01:20:15.046Z,0.00
2022-11-28T01:21:15.119Z,0.00
2022-11-28T01:22:15.224Z,0.00
2022-11-28T01:23:15.287Z,0.00
2022-11-28T01:24:15.381Z,0.00
2022-11-28T01:25:15.430Z,0.00
2022-11-28T01:26:15.529Z,0.00
2022-11-28T01:27:15.610Z,0.00
2022-11-28T01:28:15.674Z,0.00
2022-11-28T01:29:15.743Z,0.00
2022-11-28T01:30:15.834Z,0.00
2022-11-28T01:31:16.002Z,0.00
2022-11-28T01:32:16.018Z,0.00
2022-11-28T01:33:16.070Z,0.00
2022-11-28T01:34:16.161Z,0.00
2022-11-28T01:35:16.241Z,0.00
2022-11-28T01:36:16.334Z,0.00
2022-11-28T01:37:16.417Z,0.00
2022-11-28T01:38:16.479Z,0.00
2022-11-28T01:39:16.551Z,0.00
2022-11-28T01:40:16.650Z,0.00
2022-11-28T01:41:16.718Z,0.00
2022-11-28T01:42:16.822Z,0.00
2022-11-28T01:43:16.888Z,0.00
2022-11-28T01:44:16.983Z,0.00
2022-11-28T01:45:17.051Z,0.00
2022-11-28T01:46:17.167Z,0.00
2022-11-28T01:47:17.222Z,0.00
2022-11-28T01:48:17.283Z,0.00
2022-11-28T01:49:17.351Z,0.00
2022-11-28T01:50:17.449Z,0.00
2022-11-28T01:51:17.520Z,0.00
2022-11-28T01:52:17.647Z,0.00
2022-11-28T01:53:17.680Z,0.00
2022-11-28T01:54:17.761Z,0.00
2022-11-28T01:55:17.818Z,0.00
2022-11-28T01:56:17.906Z,0.00
2022-11-28T01:57:17.992Z,0.00
2022-11-28T01:58:18.054Z,0.00
2022-11-28T01:59:18.124Z,0.00
2022-11-28T02:00:18.215Z,0.00
2022-11-28T02:01:18.376Z,0.00
2022-11-28T02:02:18.452Z,0.00
2022-11-28T02:03:18.453Z,0.00
2022-11-28T02:04:18.547Z,0.00
2022-11-28T02:05:18.639Z,0.00
2022-11-28T02:06:18.725Z,0.00
2022-11-28T02:07:18.883Z,0.00
2022-11-28T02:08:18.888Z,0.00
2022-11-28T02:09:18.939Z,0.00
2022-11-28T02:10:19.036Z,0.00
2022-11-28T02:11:19.125Z,0.00
2022-11-28T02:12:19.195Z,0.00
2022-11-28T02:13:19.257Z,0.00
2022-11-28T02:14:19.353Z,0.00
2022-11-28T02:15:19.424Z,0.00
2022-11-28T02:16:19.562Z,0.00
2022-11-28T02:17:19.601Z,0.00
2022-11-28T02:18:19.657Z,0.00
2022-11-28T02:19:19.731Z,0.00
2022-11-28T02:20:19.810Z,0.00
2022-11-28T02:21:19.882Z,0.00
2022-11-28T02:22:19.992Z,0.00
2022-11-28T02:23:20.053Z,0.00
2022-11-28T02:24:20.147Z,0.00
2022-11-28T02:25:20.209Z,0.00
2022-11-28T02:26:20.292Z,0.00
2022-11-28T02:27:20.384Z,0.00
2022-11-28T02:28:20.445Z,0.00
2022-11-28T02:29:20.516Z,0.00
2022-11-28T02:30:20.620Z,0.00
2022-11-28T02:31:20.707Z,0.00
2022-11-28T02:32:20.801Z,0.00
2022-11-28T02:33:20.812Z,0.00
2022-11-28T02:34:20.906Z,0.00
2022-11-28T02:35:20.976Z,0.00
2022-11-28T02:36:21.069Z,0.00
2022-11-28T02:37:21.150Z,0.00
2022-11-28T02:38:21.213Z,0.00
2022-11-28T02:39:21.285Z,0.00
2022-11-28T02:40:21.386Z,0.00
2022-11-28T02:41:21.450Z,0.00
2022-11-28T02:42:21.561Z,0.00
2022-11-28T02:43:21.598Z,0.00
2022-11-28T02:44:21.677Z,0.00
2022-11-28T02:45:21.749Z,0.00
2022-11-28T02:46:21.892Z,0.00
2022-11-28T02:47:21.945Z,0.00
2022-11-28T02:48:22.004Z,0.00
2022-11-28T02:49:22.075Z,0.00
2022-11-28T02:50:22.156Z,0.00
2022-11-28T02:51:22.229Z,0.00
2022-11-28T02:52:22.354Z,0.00
2022-11-28T02:53:22.416Z,0.00
2022-11-28T02:54:22.507Z,0.00
2022-11-28T02:55:22.580Z,0.00
2022-11-28T02:56:22.676Z,0.00
2022-11-28T02:57:22.749Z,0.00
2022-11-28T02:58:22.813Z,0.00
2022-11-28T02:59:22.895Z,0.00
2022-11-28T03:00:22.974Z,0.00
2022-11-28T03:01:23.162Z,0.00
2022-11-28T03:02:23.309Z,0.00
2022-11-28T03:03:23.207Z,0.00
2022-11-28T03:04:23.299Z,0.00
2022-11-28T03:05:23.369Z,0.00
2022-11-28T03:06:23.465Z,0.00
2022-11-28T03:07:23.597Z,0.00
2022-11-28T03:08:23.633Z,0.00
2022-11-28T03:09:23.706Z,0.00
2022-11-28T03:10:23.800Z,0.00
2022-11-28T03:11:23.849Z,0.00
2022-11-28T03:12:23.956Z,0.00
2022-11-28T03:13:24.017Z,0.00
2022-11-28T03:14:24.111Z,0.00
2022-11-28T03:15:24.183Z,0.00
2022-11-28T03:16:24.345Z,0.00
2022-11-28T03:17:24.330Z,0.00
2022-11-28T03:18:24.391Z,0.00
2022-11-28T03:19:24.463Z,0.00
2022-11-28T03:20:24.558Z,0.00
2022-11-28T03:21:24.632Z,0.00
2022-11-28T03:22:24.742Z,0.00
2022-11-28T03:23:24.795Z,0.00
2022-11-28T03:24:24.874Z,0.00
2022-11-28T03:25:24.945Z,0.00
2022-11-28T03:26:25.042Z,0.00
2022-11-28T03:27:25.117Z,0.00
2022-11-28T03:28:25.219Z,0.00
2022-11-28T03:29:25.292Z,0.00
2022-11-28T03:30:25.372Z,0.00
2022-11-28T03:31:25.593Z,0.00
2022-11-28T03:32:25.558Z,0.00
2022-11-28T03:33:25.616Z,0.00
2022-11-28T03:34:25.710Z,0.00
2022-11-28T03:35:25.780Z,0.00
2022-11-28T03:36:25.875Z,0.00
2022-11-28T03:37:25.950Z,0.00
2022-11-28T03:38:26.014Z,0.00
2022-11-28T03:39:26.085Z,0.00
2022-11-28T03:40:26.176Z,0.00
2022-11-28T03:41:26.245Z,0.00
2022-11-28T03:42:26.358Z,0.00
2022-11-28T03:43:26.419Z,0.00
2022-11-28T03:44:26.511Z,0.00
2022-11-28T03:45:26.589Z,0.00
2022-11-28T03:46:26.715Z,0.00
2022-11-28T03:47:26.741Z,0.00
2022-11-28T03:48:26.818Z,0.00
2022-11-28T03:49:26.877Z,0.00
2022-11-28T03:50:26.969Z,0.00
2022-11-28T03:51:27.040Z,0.00
2022-11-28T03:52:27.125Z,0.00
2022-11-28T03:53:27.197Z,0.00
2022-11-28T03:54:27.257Z,0.00
2022-11-28T03:55:27.445Z,0.00
2022-11-28T03:56:27.417Z,0.00
2022-11-28T03:57:27.512Z,0.00
2022-11-28T03:58:27.573Z,0.00
2022-11-28T03:59:27.665Z,0.00
2022-11-28T04:00:27.736Z,0.00
2022-11-28T04:01:27.897Z,0.00
2022-11-28T04:02:27.922Z,0.00
2022-11-28T04:03:28.077Z,0.00
2022-11-28T04:04:28.059Z,0.00
2022-11-28T04:05:28.156Z,0.00
2022-11-28T04:06:28.222Z,0.00
2022-11-28T04:07:28.403Z,0.00
2022-11-28T04:08:28.392Z,0.00
2022-11-28T04:09:28.474Z,0.00
2022-11-28T04:10:28.545Z,0.00
2022-11-28T04:11:28.638Z,0.00
2022-11-28T04:12:28.751Z,0.00
2022-11-28T04:13:28.815Z,0.00
2022-11-28T04:14:28.883Z,0.00
2022-11-28T04:15:28.972Z,0.00
2022-11-28T04:16:29.162Z,0.00
2022-11-28T04:17:29.179Z,0.00
2022-11-28T04:18:29.244Z,0.00
2022-11-28T04:19:29.338Z,0.00
2022-11-28T04:20:29.408Z,0.00
2022-11-28T04:21:29.513Z,0.00
2022-11-28T04:22:29.585Z,0.00
2022-11-28T04:23:29.649Z,0.00
2022-11-28T04:24:29.715Z,0.00
2022-11-28T04:25:29.811Z,0.00
2022-11-28T04:26:29.882Z,0.00
2022-11-28T04:27:29.994Z,0.00
2022-11-28T04:28:30.061Z,0.00
2022-11-28T04:29:30.162Z,0.00
2022-11-28T04:30:30.229Z,0.00
2022-11-28T04:31:30.369Z,0.00
2022-11-28T04:32:30.414Z,0.00
2022-11-28T04:33:30.482Z,0.00
2022-11-28T04:34:30.534Z,0.00
2022-11-28T04:35:30.612Z,0.00
2022-11-28T04:36:30.672Z,0.00
2022-11-28T04:37:30.776Z,0.00
2022-11-28T04:38:30.843Z,0.00
2022-11-28T04:39:30.937Z,0.00
2022-11-28T04:40:31.009Z,0.00
2022-11-28T04:41:31.100Z,0.00
2022-11-28T04:42:31.284Z,0.00
2022-11-28T04:43:31.501Z,0.00
2022-11-28T04:44:31.349Z,0.00
2022-11-28T04:45:31.504Z,0.00
2022-11-28T04:46:31.476Z,0.00
2022-11-28T04:47:31.582Z,0.00
2022-11-28T04:48:34.391Z,0.00
2022-11-28T04:49:31.733Z,0.00
2022-11-28T04:50:31.802Z,0.00
2022-11-28T04:51:31.900Z,0.00
2022-11-28T04:52:31.969Z,0.00
2022-11-28T04:53:32.068Z,0.00
2022-11-28T04:54:32.143Z,0.00
2022-11-28T04:55:32.238Z,0.00
2022-11-28T04:56:32.310Z,0.00
2022-11-28T04:57:32.404Z,0.00
2022-11-28T04:58:32.459Z,0.00
2022-11-28T04:59:32.536Z,0.00
2022-11-28T05:00:32.651Z,0.00
2022-11-28T05:01:32.692Z,0.00
2022-11-28T05:02:32.802Z,0.00
2022-11-28T05:03:32.845Z,0.00
2022-11-28T05:04:32.921Z,0.00
2022-11-28T05:05:33.008Z,0.00
2022-11-28T05:06:33.081Z,0.00
2022-11-28T05:07:33.258Z,0.00
2022-11-28T05:08:33.244Z,0.00
2022-11-28T05:09:33.336Z,0.00
2022-11-28T05:10:33.410Z,0.00
2022-11-28T05:11:33.507Z,0.00
2022-11-28T05:12:33.589Z,0.00
2022-11-28T05:13:33.651Z,0.00
2022-11-28T05:14:33.723Z,0.00
2022-11-28T05:15:33.814Z,0.00
2022-11-28T05:16:33.952Z,0.00
2022-11-28T05:17:37.689Z,0.00
2022-11-28T05:18:34.022Z,0.00
2022-11-28T05:19:34.115Z,0.00
2022-11-28T05:20:34.186Z,0.00
2022-11-28T05:21:34.278Z,0.00
2022-11-28T05:22:34.366Z,0.00
2022-11-28T05:23:34.428Z,0.00
2022-11-28T05:24:34.500Z,0.00
2022-11-28T05:25:34.583Z,0.00
2022-11-28T05:26:34.643Z,0.00
2022-11-28T05:27:34.752Z,0.00
2022-11-28T05:28:34.817Z,0.00
2022-11-28T05:29:34.900Z,0.00
2022-11-28T05:30:34.952Z,0.00
2022-11-28T05:31:35.135Z,0.00
2022-11-28T05:32:35.130Z,0.00
2022-11-28T05:33:35.189Z,0.00
2022-11-28T05:34:35.264Z,0.00
2022-11-28T05:35:35.355Z,0.00
2022-11-28T05:36:35.425Z,0.00
2022-11-28T05:37:35.523Z,0.00
2022-11-28T05:38:35.584Z,0.00
2022-11-28T05:39:35.663Z,0.00
2022-11-28T05:40:35.737Z,0.00
2022-11-28T05:41:35.821Z,0.00
2022-11-28T05:42:35.901Z,0.00
2022-11-28T05:43:35.967Z,0.00
2022-11-28T05:44:36.041Z,0.00
2022-11-28T05:45:36.146Z,0.00
2022-11-28T05:46:36.191Z,0.00
2022-11-28T05:47:36.293Z,0.00
2022-11-28T05:48:36.357Z,0.00
2022-11-28T05:49:36.421Z,0.00
2022-11-28T05:50:39.919Z,0.00
2022-11-28T05:51:36.577Z,0.00
2022-11-28T05:52:36.660Z,0.00
2022-11-28T05:53:36.721Z,0.00
2022-11-28T05:54:36.794Z,0.00
2022-11-28T05:55:36.887Z,0.00
2022-11-28T05:56:42.137Z,0.00
2022-11-28T05:57:37.063Z,0.00
2022-11-28T05:58:37.115Z,0.00
2022-11-28T05:59:37.208Z,0.00
2022-11-28T06:00:37.279Z,0.00
2022-11-28T06:01:37.390Z,0.00
2022-11-28T06:02:37.513Z,0.00
2022-11-28T06:03:37.548Z,0.00
2022-11-28T06:04:37.657Z,0.00
2022-11-28T06:05:44.949Z,0.00
2022-11-28T06:06:37.784Z,0.00
2022-11-28T06:07:37.930Z,0.00
2022-11-28T06:08:37.894Z,0.00
2022-11-28T06:09:37.975Z,0.00
2022-11-28T06:10:38.045Z,0.00
2022-11-28T06:11:38.141Z,0.00
2022-11-28T06:12:38.204Z,0.00
2022-11-28T06:13:38.265Z,0.00
2022-11-28T06:14:38.336Z,0.00
2022-11-28T06:15:38.751Z,0.00
2022-11-28T06:16:38.532Z,0.00
2022-11-28T06:17:38.591Z,0.00
2022-11-28T06:18:38.641Z,0.00
2022-11-28T06:19:38.731Z,0.00
2022-11-28T06:20:38.801Z,0.00
2022-11-28T06:21:38.884Z,0.00
2022-11-28T06:22:38.964Z,0.00
2022-11-28T06:23:39.042Z,0.00
2022-11-28T06:24:39.115Z,0.00
2022-11-28T06:25:39.214Z,0.00
2022-11-28T06:26:39.283Z,0.00
2022-11-28T06:27:39.377Z,0.00
2022-11-28T06:28:39.445Z,0.00
2022-11-28T06:29:39.653Z,0.00
2022-11-28T06:30:39.628Z,0.00
2022-11-28T06:31:39.736Z,0.00
2022-11-28T06:32:39.790Z,0.00
2022-11-28T06:33:39.854Z,0.00
2022-11-28T06:34:39.924Z,0.00
2022-11-28T06:35:40.019Z,0.00
2022-11-28T06:36:40.088Z,0.00
2022-11-28T06:37:40.197Z,0.00
2022-11-28T06:38:40.265Z,0.00
2022-11-28T06:39:40.586Z,0.00
2022-11-28T06:40:40.422Z,0.00
2022-11-28T06:41:40.517Z,4.00
2022-11-28T06:42:40.606Z,4.00
2022-11-28T06:43:40.674Z,0.00
2022-11-28T06:44:40.739Z,4.00
2022-11-28T06:45:40.895Z,4.00
2022-11-28T06:46:40.905Z,4.00
2022-11-28T06:47:41.009Z,8.00
2022-11-28T06:48:41.042Z,4.00
2022-11-28T06:49:41.456Z,8.00
2022-11-28T06:50:41.217Z,8.00
2022-11-28T06:51:41.319Z,12.00
2022-11-28T06:52:41.388Z,12.00
2022-11-28T06:53:41.446Z,16.00
2022-11-28T06:54:41.519Z,12.00
2022-11-28T06:55:41.611Z,16.00
2022-11-28T06:56:41.678Z,16.00
2022-11-28T06:57:41.794Z,20.00
2022-11-28T06:58:41.855Z,24.00
2022-11-28T06:59:42.237Z,28.00
2022-11-28T07:00:42.080Z,32.00
2022-11-28T07:01:42.133Z,32.00
2022-11-28T07:02:42.252Z,40.00
2022-11-28T07:03:42.221Z,44.00
2022-11-28T07:04:42.298Z,48.00
2022-11-28T07:05:42.376Z,52.00
2022-11-28T07:06:42.444Z,60.00
2022-11-28T07:07:53.555Z,64.00
2022-11-28T07:08:42.619Z,68.00
2022-11-28T07:09:43.019Z,72.00
2022-11-28T07:10:42.771Z,80.00
2022-11-28T07:11:42.866Z,84.00
2022-11-28T07:12:42.950Z,88.00
2022-11-28T07:13:43.044Z,100.00
2022-11-28T07:14:43.101Z,108.00
2022-11-28T07:15:43.193Z,120.00
2022-11-28T07:16:43.344Z,132.00
2022-11-28T07:17:43.368Z,144.00
2022-11-28T07:18:43.409Z,160.00
2022-11-28T07:19:43.904Z,180.00
2022-11-28T07:20:43.612Z,196.00
2022-11-28T07:21:43.660Z,212.00
2022-11-28T07:22:43.754Z,228.00
2022-11-28T07:23:43.816Z,244.00
2022-11-28T07:24:43.892Z,256.00
2022-11-28T07:25:43.974Z,260.00
2022-11-28T07:26:44.043Z,268.00
2022-11-28T07:27:44.236Z,276.00
2022-11-28T07:28:44.210Z,296.00
2022-11-28T07:29:44.593Z,308.00
2022-11-28T07:30:44.371Z,320.00
2022-11-28T07:31:44.492Z,332.00
2022-11-28T07:32:44.541Z,352.00
2022-11-28T07:33:44.602Z,348.00
2022-11-28T07:34:49.890Z,336.00
2022-11-28T07:35:44.773Z,324.00
2022-11-28T07:36:44.845Z,316.00
2022-11-28T07:37:44.958Z,300.00
2022-11-28T07:38:45.033Z,288.00
2022-11-28T07:39:45.329Z,288.00
2022-11-28T07:40:45.166Z,292.00
2022-11-28T07:41:45.263Z,308.00
2022-11-28T07:42:45.342Z,336.00
2022-11-28T07:43:45.411Z,388.00
2022-11-28T07:44:45.488Z,432.00
2022-11-28T07:45:59.922Z,456.00
2022-11-28T07:46:45.707Z,468.00
2022-11-28T07:47:45.730Z,468.00
2022-11-28T07:48:45.790Z,456.00
2022-11-28T07:49:45.874Z,440.00
2022-11-28T07:50:45.942Z,432.00
2022-11-28T07:51:46.037Z,440.00
2022-11-28T07:52:46.120Z,452.00
2022-11-28T07:53:46.185Z,480.00
2022-11-28T07:54:46.253Z,532.00
2022-11-28T07:55:46.337Z,576.00
2022-11-28T07:57:46.519Z,656.00
2022-11-28T07:58:46.557Z,692.00
2022-11-28T07:59:46.687Z,720.00
2022-11-28T08:00:46.717Z,744.00
2022-11-28T08:01:46.839Z,708.00
2022-11-28T08:02:46.916Z,704.00
2022-11-28T08:03:46.990Z,748.00
2022-11-28T08:04:50.602Z,788.00
2022-11-28T08:05:47.152Z,828.00
2022-11-28T08:06:47.214Z,916.00
2022-11-28T08:07:47.358Z,976.00
2022-11-28T08:08:47.368Z,1004.00
2022-11-28T08:09:47.439Z,992.00
2022-11-28T08:10:47.526Z,968.00
2022-11-28T08:11:47.599Z,948.00
2022-11-28T08:12:47.704Z,960.00
2022-11-28T08:13:47.767Z,988.00
2022-11-28T08:14:47.857Z,1004.00
2022-11-28T08:15:47.948Z,1024.00
2022-11-28T08:16:48.052Z,1048.00
2022-11-28T08:17:48.102Z,1100.00
2022-11-28T08:18:48.161Z,1136.00
2022-11-28T08:19:48.235Z,1156.00
2022-11-28T08:20:48.328Z,1132.00
2022-11-28T08:21:48.390Z,1080.00
2022-11-28T08:22:48.482Z,1072.00
2022-11-28T08:23:48.541Z,1124.00
2022-11-28T08:24:48.639Z,1208.00
2022-11-28T08:25:48.716Z,1256.00
2022-11-28T08:26:48.808Z,1308.00
2022-11-28T08:27:48.886Z,1420.00
2022-11-28T08:28:48.947Z,1412.00
2022-11-28T08:29:52.135Z,1392.00
2022-11-28T08:30:49.202Z,1364.00
2022-11-28T08:31:49.198Z,1348.00
2022-11-28T08:32:49.314Z,1344.00
2022-11-28T08:33:49.344Z,1368.00
2022-11-28T08:34:49.441Z,1436.00
2022-11-28T08:35:49.509Z,1488.00
2022-11-28T08:36:49.602Z,1592.00
2022-11-28T08:37:49.679Z,1688.00
2022-11-28T08:39:03.383Z,1776.00
2022-11-28T08:39:49.800Z,1964.00
2022-11-28T08:40:49.894Z,2232.00
2022-11-28T08:41:49.961Z,2444.00
2022-11-28T08:42:50.082Z,2720.00
2022-11-28T08:43:50.138Z,2908.00
2022-11-28T08:44:50.236Z,2924.00
2022-11-28T08:45:50.375Z,2828.00
2022-11-28T08:46:50.444Z,2916.00
2022-11-28T08:47:50.455Z,2876.00
2022-11-28T08:48:50.514Z,2792.00
2022-11-28T08:49:50.571Z,2716.00
2022-11-28T08:50:50.663Z,2760.00
2022-11-28T08:51:50.728Z,2732.00
2022-11-28T08:52:50.831Z,2588.00
2022-11-28T08:53:54.885Z,2536.00
2022-11-28T08:54:50.970Z,2596.00
2022-11-28T08:55:51.034Z,2676.00
2022-11-28T08:56:51.140Z,2784.00
2022-11-28T08:57:51.220Z,2832.00
2022-11-28T08:58:51.285Z,2900.00
2022-11-28T08:59:51.331Z,2932.00
2022-11-28T09:00:51.462Z,2916.00
2022-11-28T09:01:51.575Z,2904.00
2022-11-28T09:02:51.596Z,2868.00
2022-11-28T09:03:51.676Z,2784.00
2022-11-28T09:04:51.701Z,2716.00
2022-11-28T09:05:51.763Z,2588.00
2022-11-28T09:06:51.860Z,2460.00
2022-11-28T09:07:51.975Z,2436.00
2022-11-28T09:08:52.010Z,2448.00
2022-11-28T09:09:52.058Z,2492.00
2022-11-28T09:10:52.156Z,2544.00
2022-11-28T09:11:52.221Z,2548.00
2022-11-28T09:12:52.299Z,2520.00
2022-11-28T09:13:52.377Z,2536.00
2022-11-28T09:14:52.468Z,2572.00
2022-11-28T09:15:53.660Z,2632.00
2022-11-28T09:16:52.742Z,2744.00
2022-11-28T09:17:52.714Z,2816.00
2022-11-28T09:18:52.804Z,2888.00
2022-11-28T09:19:52.878Z,2964.00
2022-11-28T09:20:52.948Z,3068.00
2022-11-28T09:21:57.509Z,3204.00
2022-11-28T09:22:53.102Z,3268.00
2022-11-28T09:23:53.147Z,3216.00
2022-11-28T09:24:53.246Z,3140.00
2022-11-28T09:25:53.312Z,3112.00
2022-11-28T09:26:53.426Z,3084.00
2022-11-28T09:27:53.513Z,3060.00
2022-11-28T09:28:53.573Z,3044.00
2022-11-28T09:29:53.632Z,3028.00
2022-11-28T09:30:53.776Z,2944.00
2022-11-28T09:31:53.781Z,2844.00
2022-11-28T09:32:53.891Z,2772.00
2022-11-28T09:33:53.957Z,2736.00
2022-11-28T09:34:54.033Z,2708.00
2022-11-28T09:35:54.096Z,2688.00
2022-11-28T09:36:54.191Z,2704.00
2022-11-28T09:37:54.280Z,2692.00
2022-11-28T09:38:54.335Z,2596.00
2022-11-28T09:40:12.704Z,2528.00
2022-11-28T09:40:54.481Z,2572.00
2022-11-28T09:41:54.556Z,2700.00
2022-11-28T09:42:54.667Z,2796.00
2022-11-28T09:43:55.284Z,2792.00
2022-11-28T09:44:54.799Z,2764.00
2022-11-28T09:45:54.925Z,2736.00
2022-11-28T09:46:54.962Z,2716.00
2022-11-28T09:47:55.045Z,2704.00
2022-11-28T09:48:55.131Z,2684.00
2022-11-28T09:49:55.196Z,2664.00
2022-11-28T09:50:55.292Z,2632.00
2022-11-28T09:51:55.362Z,2640.00
2022-11-28T09:52:55.586Z,2696.00
2022-11-28T09:53:55.515Z,2732.00
2022-11-28T09:54:55.594Z,2740.00
2022-11-28T09:55:55.664Z,2680.00
2022-11-28T09:56:55.761Z,2632.00
2022-11-28T09:57:55.850Z,2576.00
2022-11-28T09:58:55.907Z,2484.00
2022-11-28T09:59:55.978Z,2408.00
2022-11-28T10:00:56.077Z,2392.00
2022-11-28T10:01:56.138Z,2424.00
2022-11-28T10:02:56.261Z,2456.00
2022-11-28T10:03:56.469Z,2456.00
2022-11-28T10:04:56.439Z,2416.00
2022-11-28T10:05:56.451Z,2328.00
2022-11-28T10:06:56.551Z,2260.00
2022-11-28T10:07:56.714Z,2224.00
2022-11-28T10:08:56.687Z,2196.00
2022-11-28T10:09:56.756Z,2184.00
2022-11-28T10:10:56.852Z,2180.00
2022-11-28T10:11:56.923Z,2204.00
2022-11-28T10:12:57.051Z,2256.00
2022-11-28T10:14:12.475Z,2324.00
2022-11-28T10:14:57.157Z,2392.00
2022-11-28T10:15:57.222Z,2468.00
2022-11-28T10:16:57.428Z,2536.00
2022-11-28T10:17:57.411Z,2560.00
2022-11-28T10:18:57.483Z,2600.00
2022-11-28T10:19:57.726Z,2612.00
2022-11-28T10:20:57.633Z,2588.00
2022-11-28T10:21:59.398Z,2552.00
2022-11-28T10:22:57.813Z,2516.00
2022-11-28T10:23:58.426Z,2508.00
2022-11-28T10:24:57.949Z,2504.00
2022-11-28T10:25:58.022Z,2564.00
2022-11-28T10:26:58.117Z,2660.00
2022-11-28T10:27:58.228Z,2756.00
2022-11-28T10:28:58.284Z,2860.00
2022-11-28T10:29:58.359Z,2944.00
2022-11-28T10:30:58.515Z,2996.00
2022-11-28T10:31:58.543Z,3020.00
2022-11-28T10:32:59.421Z,3044.00
2022-11-28T10:33:58.666Z,3084.00
2022-11-28T10:34:58.763Z,3124.00
2022-11-28T10:35:58.831Z,3168.00
2022-11-28T10:36:58.904Z,3244.00
2022-11-28T10:37:59.005Z,3336.00
2022-11-28T10:38:59.059Z,3412.00
2022-11-28T10:39:59.160Z,3432.00
2022-11-28T10:40:59.222Z,3424.00
2022-11-28T10:41:59.295Z,3400.00
2022-11-28T10:42:59.379Z,3368.00
2022-11-28T10:43:59.464Z,3324.00
2022-11-28T10:44:59.529Z,3252.00
2022-11-28T10:45:59.624Z,3172.00
2022-11-28T10:46:59.668Z,3104.00
2022-11-28T10:48:07.522Z,3040.00
2022-11-28T10:48:59.842Z,3068.00
2022-11-28T10:49:59.938Z,3152.00
2022-11-28T10:51:00.008Z,3208.00
2022-11-28T10:52:00.104Z,3232.00
2022-11-28T10:53:00.191Z,3224.00
2022-11-28T10:54:00.279Z,3180.00
2022-11-28T10:55:00.323Z,3168.00
2022-11-28T10:56:00.398Z,3108.00
2022-11-28T10:57:00.471Z,3024.00
2022-11-28T10:58:00.589Z,2948.00
2022-11-28T10:59:00.660Z,2912.00
2022-11-28T11:00:00.739Z,2896.00
2022-11-28T11:01:00.894Z,2892.00
2022-11-28T11:02:00.958Z,2908.00
2022-11-28T11:03:01.006Z,2896.00
2022-11-28T11:04:01.045Z,2932.00
2022-11-28T11:05:01.210Z,2960.00
2022-11-28T11:06:01.213Z,2936.00
2022-11-28T11:07:09.058Z,2960.00
2022-11-28T11:08:01.430Z,3016.00
2022-11-28T11:09:01.410Z,3136.00
2022-11-28T11:10:01.510Z,3284.00
2022-11-28T11:11:01.557Z,3392.00
2022-11-28T11:12:01.657Z,3492.00
2022-11-28T11:13:01.763Z,3540.00
2022-11-28T11:14:01.800Z,3416.00
2022-11-28T11:15:01.867Z,3320.00
2022-11-28T11:16:02.011Z,3368.00
2022-11-28T11:17:02.055Z,3320.00
2022-11-28T11:18:02.178Z,3172.00
2022-11-28T11:19:02.216Z,2960.00
2022-11-28T11:20:02.319Z,2784.00
2022-11-28T11:21:02.385Z,2632.00
2022-11-28T11:22:02.479Z,2544.00
2022-11-28T11:23:02.570Z,2492.00
2022-11-28T11:24:02.628Z,2456.00
2022-11-28T11:25:02.697Z,2408.00
2022-11-28T11:26:02.797Z,2336.00
2022-11-28T11:27:02.861Z,2264.00
2022-11-28T11:28:02.985Z,2208.00
2022-11-28T11:29:03.046Z,2160.00
2022-11-28T11:30:03.140Z,2132.00
2022-11-28T11:31:03.296Z,2084.00
2022-11-28T11:32:03.277Z,2036.00
2022-11-28T11:33:03.364Z,2004.00
2022-11-28T11:34:03.434Z,2016.00
2022-11-28T11:35:03.504Z,2064.00
2022-11-28T11:36:03.597Z,2084.00
2022-11-28T11:37:03.673Z,2064.00
2022-11-28T11:38:03.770Z,2032.00
2022-11-28T11:39:03.832Z,2008.00
2022-11-28T11:40:03.957Z,2044.00
2022-11-28T11:41:04.005Z,2108.00
2022-11-28T11:42:04.093Z,2144.00
2022-11-28T11:43:04.178Z,2176.00
2022-11-28T11:44:04.252Z,2196.00
2022-11-28T11:45:04.319Z,2220.00
2022-11-28T11:46:04.458Z,2264.00
2022-11-28T11:47:04.468Z,2316.00
2022-11-28T11:48:04.566Z,2376.00
2022-11-28T11:49:04.618Z,2428.00
2022-11-28T11:50:04.725Z,2504.00
2022-11-28T11:51:04.749Z,2556.00
2022-11-28T11:52:04.845Z,2588.00
2022-11-28T11:53:04.926Z,2600.00
2022-11-28T11:54:05.003Z,2612.00
2022-11-28T11:55:05.052Z,2660.00
2022-11-28T11:56:05.127Z,2764.00
2022-11-28T11:57:31.320Z,2824.00
2022-11-28T11:58:06.053Z,2856.00
2022-11-28T11:59:05.336Z,2884.00
2022-11-28T12:00:05.394Z,2920.00
2022-11-28T12:01:05.514Z,2992.00
2022-11-28T12:02:05.595Z,3068.00
2022-11-28T12:03:05.745Z,3188.00
2022-11-28T12:04:17.919Z,3280.00
2022-11-28T12:05:05.867Z,3348.00
2022-11-28T12:06:14.214Z,3408.00
2022-11-28T12:07:05.907Z,3412.00
2022-11-28T12:08:06.128Z,3416.00
2022-11-28T12:09:06.048Z,3432.00
2022-11-28T12:10:06.153Z,3456.00
2022-11-28T12:11:06.207Z,3436.00
2022-11-28T12:12:06.316Z,3368.00
2022-11-28T12:13:06.418Z,3304.00
2022-11-28T12:14:06.457Z,3256.00
2022-11-28T12:15:06.528Z,3252.00
2022-11-28T12:16:06.655Z,3248.00
2022-11-28T12:17:25.743Z,3256.00
2022-11-28T12:18:06.751Z,3264.00
2022-11-28T12:19:06.782Z,3296.00
2022-11-28T12:20:06.882Z,3256.00
2022-11-28T12:21:06.956Z,3132.00
2022-11-28T12:22:07.065Z,3028.00
2022-11-28T12:23:07.144Z,2964.00
2022-11-28T12:24:07.196Z,2896.00
2022-11-28T12:25:07.267Z,2852.00
2022-11-28T12:26:07.335Z,2808.00
2022-11-28T12:27:07.437Z,2744.00
2022-11-28T12:28:07.526Z,2704.00
2022-11-28T12:29:09.357Z,2688.00
2022-11-28T12:30:07.677Z,2692.00
2022-11-28T12:31:07.775Z,2744.00
2022-11-28T12:32:07.824Z,2768.00
2022-11-28T12:33:07.919Z,2844.00
2022-11-28T12:34:07.985Z,2948.00
2022-11-28T12:35:08.074Z,3056.00
2022-11-28T12:36:08.141Z,3132.00
2022-11-28T12:37:08.243Z,3156.00
2022-11-28T12:38:12.157Z,3164.00
2022-11-28T12:39:08.408Z,3192.00
2022-11-28T12:40:08.460Z,3196.00
2022-11-28T12:41:08.554Z,3200.00
2022-11-28T12:42:08.626Z,3168.00
2022-11-28T12:43:08.713Z,3132.00
2022-11-28T12:44:08.777Z,3112.00
2022-11-28T12:45:08.872Z,3104.00
2022-11-28T12:46:08.980Z,3076.00
2022-11-28T12:47:09.030Z,3076.00
2022-11-28T12:48:09.110Z,3048.00